KGPZ

Grand Rapids / Itasca Co-Gordon Newstrom Field Airport

Grand Rapids, Minnesota, USA
METAR KGPZ 160056Z AUTO 17018G21KT 10SM CLR 04/M07 A2983 RMK AO2 SLP120 T00391072
Observed Flight Rules
Dec-16 @ 00:56 UTC (19 minutes ago) Visual Flight Rules
Wind Visibility Clouds
170° at 18 knots
 Gusting to 21 knots
10 miles
  • Clear skies
Temperatures Readings
Current 4°C / 39°F
Dewpoint -7°C / 19°F
Humidity 45%
Altimeter 29.83" Hg
Pressure 1012 hPa
Elevation 413
METAR KGPZ 160056Z AUTO 17018G21KT 10SM CLR 04/M07 A2983 RMK AO2 SLP120 T00391072
Observed Flight Rules
Dec-16 @ 00:56 UTC
(19 minutes ago)
VFR
Wind Visibility
170° at 18 knots
 Gusting to 21 knots
10 miles
Clouds
  • Clear skies
Temperature Dewpoint
4°C / 39°F -7°C / 19°F
Humidity Altimeter Pressure
45% 29.83" Hg 1012 hPa